Time;durP1;ratioP1;P1;durP2;ratioP2;P2;SDS_P1;SDS_P2;PMS_P1;PMS_P2;Temp;Humidity;BMP_temperature;BMP_pressure;BME280_temperature;BME280_humidity;BME280_pressure;Samples;Min_cycle;Max_cycle;Signal;HPM_P1;HPM_P2
2022/09/16 00:00:43;;;;;;;;;1.75;1.75;;;;;;;;5102171;27;62300;-76
2022/09/16 00:03:09;;;;;;;;;4.50;3.00;;;;;;;;5101919;27;61949;-76
2022/09/16 00:05:39;;;;;;;;;5.25;3.00;;;;;;;;5102336;27;62953;-75
2022/09/16 00:08:05;;;;;;;;;3.00;1.25;;;;;;;;5102860;27;61949;-76
2022/09/16 00:10:30;;;;;;;;;3.50;2.25;;;;;;;;5103216;27;62283;-75
2022/09/16 00:12:55;;;;;;;;;1.00;1.00;;;;;;;;5103148;27;61816;-76
2022/09/16 00:15:20;;;;;;;;;3.00;2.00;;;;;;;;5102423;27;63089;-76
2022/09/16 00:17:49;;;;;;;;;2.75;2.00;;;;;;;;5101803;27;61833;-76
2022/09/16 00:20:14;;;;;;;;;3.75;1.00;;;;;;;;5101464;27;61742;-75
2022/09/16 00:22:39;;;;;;;;;2.50;2.50;;;;;;;;5102868;27;61762;-75
2022/09/16 00:25:05;;;;;;;;;3.00;3.00;;;;;;;;5102231;27;61883;-75
2022/09/16 00:27:30;;;;;;;;;2.00;2.00;;;;;;;;5102398;27;61971;-76
2022/09/16 00:29:55;;;;;;;;;4.75;2.25;;;;;;;;5102884;27;61986;-75
2022/09/16 00:32:22;;;;;;;;;3.25;2.00;;;;;;;;5102900;27;61894;-76
2022/09/16 00:34:48;;;;;;;;;5.25;3.50;;;;;;;;5102108;27;62760;-75
2022/09/16 00:37:13;;;;;;;;;3.75;3.00;;;;;;;;5102666;27;61825;-76
2022/09/16 00:39:38;;;;;;;;;5.25;3.00;;;;;;;;5101295;27;61923;-76
2022/09/16 00:42:04;;;;;;;;;5.00;3.00;;;;;;;;5101176;27;62034;-76
2022/09/16 00:44:48;;;;;;;;;4.75;2.00;;;;;;;;5100585;27;63762;-75
2022/09/16 00:47:15;;;;;;;;;2.75;2.00;;;;;;;;5102832;27;62318;-76
2022/09/16 00:49:42;;;;;;;;;3.00;2.00;;;;;;;;5102399;27;61975;-76
2022/09/16 00:52:08;;;;;;;;;3.50;3.00;;;;;;;;5102922;27;61709;-76
2022/09/16 00:54:34;;;;;;;;;5.25;3.00;;;;;;;;5099891;27;63422;-76
2022/09/16 00:57:01;;;;;;;;;3.00;3.00;;;;;;;;5102262;27;62326;-75
2022/09/16 00:59:34;;;;;;;;;3.50;3.25;;;;;;;;5100683;27;61729;-76
2022/09/16 01:02:07;;;;;;;;;3.50;3.00;;;;;;;;5102762;27;61786;-76
2022/09/16 01:04:40;;;;;;;;;8.00;3.75;;;;;;;;5100155;27;63814;-76
2022/09/16 01:07:05;;;;;;;;;6.00;4.75;;;;;;;;5102179;27;61753;-76
2022/09/16 01:09:31;;;;;;;;;3.75;3.75;;;;;;;;5100589;27;62165;-76
2022/09/16 01:11:56;;;;;;;;;0.00;0.00;;;;;;;;5102543;27;61942;-76
2022/09/16 01:17:12;;;;;;;;;5.00;3.75;;;;;;;;5102089;27;61871;-76
2022/09/16 01:19:50;;;;;;;;;4.75;3.75;;;;;;;;5101919;27;62081;-76
2022/09/16 01:22:16;;;;;;;;;3.25;2.00;;;;;;;;5102175;27;61999;-76
2022/09/16 01:24:50;;;;;;;;;7.25;3.00;;;;;;;;5101069;27;61808;-76
2022/09/16 01:27:32;;;;;;;;;4.00;4.00;;;;;;;;5101874;27;61600;-76
2022/09/16 01:30:06;;;;;;;;;6.50;3.00;;;;;;;;5105579;27;61826;-75
2022/09/16 01:32:31;;;;;;;;;3.00;3.00;;;;;;;;5105482;27;61950;-76
2022/09/16 01:35:16;;;;;;;;;2.25;2.25;;;;;;;;5105147;27;61719;-75
2022/09/16 01:38:05;;;;;;;;;2.50;2.50;;;;;;;;5103994;27;61701;-76
2022/09/16 01:40:40;;;;;;;;;2.50;2.50;;;;;;;;5099375;27;61773;-76
2022/09/16 01:43:18;;;;;;;;;3.50;3.50;;;;;;;;5105654;27;62001;-76
2022/09/16 01:45:59;;;;;;;;;5.50;4.00;;;;;;;;5104654;27;62638;-76
2022/09/16 01:48:28;;;;;;;;;4.50;3.50;;;;;;;;5103190;27;61840;-75
2022/09/16 01:51:11;;;;;;;;;7.00;3.75;;;;;;;;5105013;27;62131;-76
2022/09/16 01:53:42;;;;;;;;;4.00;4.00;;;;;;;;5104875;27;61941;-76
2022/09/16 01:56:20;;;;;;;;;2.75;1.75;;;;;;;;5104760;27;63197;-76
2022/09/16 01:59:03;;;;;;;;;5.25;5.00;;;;;;;;5104654;27;62052;-75
2022/09/16 02:01:31;;;;;;;;;4.00;4.00;;;;;;;;5104986;27;62017;-76
2022/09/16 02:03:59;;;;;;;;;8.25;4.25;;;;;;;;5103872;27;62075;-76
2022/09/16 02:06:26;;;;;;;;;6.00;4.00;;;;;;;;5103313;27;63743;-76
2022/09/16 02:08:52;;;;;;;;;3.00;3.00;;;;;;;;5103249;27;62168;-75
2022/09/16 02:11:18;;;;;;;;;5.00;4.00;;;;;;;;5105037;27;61973;-76
2022/09/16 02:13:50;;;;;;;;;7.50;4.75;;;;;;;;5104997;27;61751;-76
2022/09/16 02:16:20;;;;;;;;;6.75;6.75;;;;;;;;5104331;27;62140;-76
2022/09/16 02:18:51;;;;;;;;;7.25;4.75;;;;;;;;5104371;27;62034;-76
2022/09/16 02:21:16;;;;;;;;;4.75;3.75;;;;;;;;5104978;27;61905;-76
2022/09/16 02:23:53;;;;;;;;;7.50;4.00;;;;;;;;5103127;27;62270;-76
2022/09/16 02:26:22;;;;;;;;;7.25;4.00;;;;;;;;5104313;27;61831;-76
2022/09/16 02:28:49;;;;;;;;;6.25;6.00;;;;;;;;5104113;27;62004;-76
2022/09/16 02:31:16;;;;;;;;;6.00;3.25;;;;;;;;5104467;27;61800;-75
2022/09/16 02:33:41;;;;;;;;;9.25;6.00;;;;;;;;5104711;27;61791;-76
2022/09/16 02:36:07;;;;;;;;;4.00;3.00;;;;;;;;5104060;27;61898;-76
2022/09/16 02:38:41;;;;;;;;;4.00;4.00;;;;;;;;5104491;27;61746;-75
2022/09/16 02:41:13;;;;;;;;;6.00;4.00;;;;;;;;5102416;27;61912;-75
2022/09/16 02:43:38;;;;;;;;;9.25;5.75;;;;;;;;5104304;27;62107;-76
2022/09/16 02:46:16;;;;;;;;;5.50;5.00;;;;;;;;5102091;27;63718;-76
2022/09/16 02:48:41;;;;;;;;;5.50;5.00;;;;;;;;5104263;27;61624;-76
2022/09/16 02:51:25;;;;;;;;;7.00;6.50;;;;;;;;5104450;27;61762;-76
2022/09/16 02:53:57;;;;;;;;;8.00;8.00;;;;;;;;5104010;27;62165;-76
2022/09/16 02:56:25;;;;;;;;;9.75;7.75;;;;;;;;5103797;27;61761;-76
2022/09/16 02:58:51;;;;;;;;;4.00;4.00;;;;;;;;5103286;27;61927;-76
2022/09/16 03:01:16;;;;;;;;;6.75;6.75;;;;;;;;5104322;27;61761;-75
2022/09/16 03:03:42;;;;;;;;;5.25;5.25;;;;;;;;5104473;27;61899;-76
2022/09/16 03:06:07;;;;;;;;;5.00;3.75;;;;;;;;5103312;27;62012;-76
2022/09/16 03:08:33;;;;;;;;;6.00;6.00;;;;;;;;5102615;27;62035;-76
2022/09/16 03:11:02;;;;;;;;;10.00;5.75;;;;;;;;5103920;27;61705;-75
2022/09/16 03:13:33;;;;;;;;;7.75;4.25;;;;;;;;5102582;27;61905;-75
2022/09/16 03:16:21;;;;;;;;;9.00;5.00;;;;;;;;5103403;27;62069;-76
2022/09/16 03:18:55;;;;;;;;;12.50;8.50;;;;;;;;5101957;27;62296;-76
2022/09/16 03:21:40;;;;;;;;;9.50;6.75;;;;;;;;5102597;27;61752;-76
2022/09/16 03:24:15;;;;;;;;;6.00;4.75;;;;;;;;5103266;27;61805;-75
2022/09/16 03:26:53;;;;;;;;;5.25;4.00;;;;;;;;5101817;27;63593;-76
2022/09/16 03:29:26;;;;;;;;;3.75;3.75;;;;;;;;5103049;27;61820;-76
2022/09/16 03:31:58;;;;;;;;;8.25;8.25;;;;;;;;5103598;27;61797;-76
2022/09/16 03:34:32;;;;;;;;;12.75;7.00;;;;;;;;5103791;27;62118;-75
2022/09/16 03:37:01;;;;;;;;;10.00;4.75;;;;;;;;5101649;27;65047;-75
2022/09/16 03:39:26;;;;;;;;;7.75;6.00;;;;;;;;5103310;27;62133;-76
2022/09/16 03:41:52;;;;;;;;;7.75;7.00;;;;;;;;5103541;27;62154;-75
2022/09/16 03:44:18;;;;;;;;;8.75;6.25;;;;;;;;5103261;27;62360;-75
2022/09/16 03:46:43;;;;;;;;;5.00;5.00;;;;;;;;5101530;27;64017;-76
2022/09/16 03:49:09;;;;;;;;;6.75;6.00;;;;;;;;5103037;27;62029;-75
2022/09/16 03:51:35;;;;;;;;;8.75;8.25;;;;;;;;5100900;27;61875;-76
2022/09/16 03:54:00;;;;;;;;;12.00;7.75;;;;;;;;5101600;27;61880;-75
2022/09/16 03:56:25;;;;;;;;;12.75;6.75;;;;;;;;5102711;27;61941;-76
2022/09/16 03:58:50;;;;;;;;;10.50;7.50;;;;;;;;5101026;27;62031;-76
2022/09/16 04:01:16;;;;;;;;;8.00;6.75;;;;;;;;5103354;27;61709;-75
2022/09/16 04:03:41;;;;;;;;;11.00;6.25;;;;;;;;5103624;27;62091;-75
2022/09/16 04:06:08;;;;;;;;;11.00;7.75;;;;;;;;5102239;27;61983;-75
2022/09/16 04:08:33;;;;;;;;;8.25;5.75;;;;;;;;5101671;27;61782;-75
2022/09/16 04:11:00;;;;;;;;;9.50;5.00;;;;;;;;5103128;27;61883;-76
2022/09/16 04:13:28;;;;;;;;;5.50;5.00;;;;;;;;5101379;27;62049;-76
2022/09/16 04:15:53;;;;;;;;;9.75;5.50;;;;;;;;5102608;27;61943;-76
2022/09/16 04:18:19;;;;;;;;;11.00;6.00;;;;;;;;5102503;27;61771;-76
2022/09/16 04:20:44;;;;;;;;;8.25;5.50;;;;;;;;5101435;27;61966;-76
2022/09/16 04:23:09;;;;;;;;;6.50;6.25;;;;;;;;5101121;27;62275;-75
2022/09/16 04:25:34;;;;;;;;;7.25;5.00;;;;;;;;5102117;27;61792;-75
2022/09/16 04:28:04;;;;;;;;;6.50;4.00;;;;;;;;5100965;27;62146;-75
2022/09/16 04:30:31;;;;;;;;;6.25;5.25;;;;;;;;5102769;27;62045;-75
2022/09/16 04:32:57;;;;;;;;;7.00;4.75;;;;;;;;5101517;27;62102;-76
2022/09/16 04:35:23;;;;;;;;;4.00;4.00;;;;;;;;5102191;27;62104;-76
2022/09/16 04:37:49;;;;;;;;;5.00;4.75;;;;;;;;5101417;27;61776;-76
2022/09/16 04:40:15;;;;;;;;;7.00;6.00;;;;;;;;5102348;27;61861;-76
2022/09/16 04:42:40;;;;;;;;;5.25;4.50;;;;;;;;5102620;27;61969;-75
2022/09/16 04:45:06;;;;;;;;;4.50;4.50;;;;;;;;5102189;27;61994;-75
2022/09/16 04:47:31;;;;;;;;;7.25;5.25;;;;;;;;5102334;27;62086;-76
2022/09/16 04:49:56;;;;;;;;;6.50;4.50;;;;;;;;5102765;27;61923;-75
2022/09/16 04:52:22;;;;;;;;;5.75;5.00;;;;;;;;5101363;27;61809;-76
2022/09/16 04:54:47;;;;;;;;;6.75;6.00;;;;;;;;5101407;27;61951;-76
2022/09/16 04:57:12;;;;;;;;;6.75;4.75;;;;;;;;5102303;27;62086;-75
2022/09/16 04:59:37;;;;;;;;;5.75;5.00;;;;;;;;5100659;27;61974;-76
2022/09/16 05:02:03;;;;;;;;;7.00;6.75;;;;;;;;5101195;27;61843;-75
2022/09/16 05:04:28;;;;;;;;;7.00;6.00;;;;;;;;5104822;27;61842;-76
2022/09/16 05:06:53;;;;;;;;;5.00;5.00;;;;;;;;5104467;27;62045;-77
2022/09/16 05:09:21;;;;;;;;;5.00;5.00;;;;;;;;5104081;27;62085;-78
2022/09/16 05:11:47;;;;;;;;;7.00;6.00;;;;;;;;5106544;27;61731;-74
2022/09/16 05:14:13;;;;;;;;;8.75;8.75;;;;;;;;5105172;27;62960;-76
2022/09/16 05:16:38;;;;;;;;;15.25;8.00;;;;;;;;5105717;27;61989;-76
2022/09/16 05:19:04;;;;;;;;;7.00;5.25;;;;;;;;5104384;27;61910;-76
2022/09/16 05:21:30;;;;;;;;;9.00;7.00;;;;;;;;5105776;27;62160;-76
2022/09/16 05:23:58;;;;;;;;;8.50;6.00;;;;;;;;5104706;27;63046;-76
2022/09/16 05:26:24;;;;;;;;;8.50;6.25;;;;;;;;5104261;27;61906;-75
2022/09/16 05:28:50;;;;;;;;;7.75;5.75;;;;;;;;5105162;27;62361;-76
2022/09/16 05:31:18;;;;;;;;;7.75;6.00;;;;;;;;5105936;27;61761;-76
2022/09/16 05:33:44;;;;;;;;;6.00;4.25;;;;;;;;5103472;27;63768;-77
2022/09/16 05:36:11;;;;;;;;;5.00;5.00;;;;;;;;5105687;27;61948;-77
2022/09/16 05:38:36;;;;;;;;;8.50;8.50;;;;;;;;5105131;27;62134;-77
2022/09/16 05:41:02;;;;;;;;;8.50;7.00;;;;;;;;5105755;27;61828;-77
2022/09/16 05:43:28;;;;;;;;;13.00;7.00;;;;;;;;5104212;27;62072;-77
2022/09/16 05:45:53;;;;;;;;;6.00;4.50;;;;;;;;5103840;27;61709;-78
2022/09/16 05:48:19;;;;;;;;;8.75;5.00;;;;;;;;5103635;27;62103;-76
2022/09/16 05:50:53;;;;;;;;;10.25;7.50;;;;;;;;5103346;27;61905;-77
2022/09/16 05:53:19;;;;;;;;;9.25;7.00;;;;;;;;5103239;27;61784;-76
2022/09/16 05:56:14;;;;;;;;;9.25;7.50;;;;;;;;5104505;27;62115;-80
2022/09/16 05:58:39;;;;;;;;;7.25;7.25;;;;;;;;5090613;27;62502;-75
2022/09/16 06:01:04;;;;;;;;;8.25;6.50;;;;;;;;5105232;27;61686;-74
2022/09/16 06:03:30;;;;;;;;;7.00;5.50;;;;;;;;5102856;27;64126;-76
2022/09/16 06:06:03;;;;;;;;;8.00;6.00;;;;;;;;5104841;27;62427;-76
2022/09/16 06:08:30;;;;;;;;;8.75;6.75;;;;;;;;5104768;27;61858;-76
2022/09/16 06:10:55;;;;;;;;;5.50;4.00;;;;;;;;5105009;27;62290;-76
2022/09/16 06:13:20;;;;;;;;;9.75;7.25;;;;;;;;5104101;27;62896;-76
2022/09/16 06:15:50;;;;;;;;;8.25;7.25;;;;;;;;5103786;27;61783;-77
2022/09/16 06:18:15;;;;;;;;;5.00;4.00;;;;;;;;5105059;27;61845;-77
2022/09/16 06:20:41;;;;;;;;;8.25;7.00;;;;;;;;5104796;27;62103;-75
2022/09/16 06:23:06;;;;;;;;;12.25;8.75;;;;;;;;5103245;27;61923;-76
2022/09/16 06:25:33;;;;;;;;;12.00;8.25;;;;;;;;5103158;27;61871;-76
2022/09/16 06:27:58;;;;;;;;;10.25;7.25;;;;;;;;5103697;27;61888;-77
2022/09/16 06:30:23;;;;;;;;;9.75;8.75;;;;;;;;5105128;27;61775;-76
2022/09/16 06:32:48;;;;;;;;;6.25;6.00;;;;;;;;5103837;27;61869;-76
2022/09/16 06:35:14;;;;;;;;;10.50;7.00;;;;;;;;5104435;27;62188;-76
2022/09/16 06:37:39;;;;;;;;;8.50;7.75;;;;;;;;5104502;27;61757;-77
2022/09/16 06:40:04;;;;;;;;;8.75;8.75;;;;;;;;5101554;27;62046;-76
2022/09/16 06:42:30;;;;;;;;;9.25;7.50;;;;;;;;5092738;27;63843;-78
2022/09/16 06:44:57;;;;;;;;;4.50;4.25;;;;;;;;5092879;27;62123;-78
2022/09/16 06:47:22;;;;;;;;;12.00;8.00;;;;;;;;5083940;28;61908;-79
2022/09/16 06:49:47;;;;;;;;;8.75;8.00;;;;;;;;5084018;28;62183;-79
2022/09/16 06:52:13;;;;;;;;;9.00;8.25;;;;;;;;5081344;28;64713;-79
2022/09/16 06:54:38;;;;;;;;;8.00;8.00;;;;;;;;5083146;28;61919;-80
2022/09/16 06:57:03;;;;;;;;;8.75;5.00;;;;;;;;5081936;28;61833;-80
2022/09/16 06:59:29;;;;;;;;;8.50;8.00;;;;;;;;5098944;27;61849;-76
2022/09/16 07:01:54;;;;;;;;;10.25;7.00;;;;;;;;5081574;28;65016;-76
2022/09/16 07:04:19;;;;;;;;;11.00;9.00;;;;;;;;5083630;28;61789;-76
2022/09/16 07:06:45;;;;;;;;;9.50;6.75;;;;;;;;5083380;28;62044;-79
2022/09/16 07:09:10;;;;;;;;;9.25;8.00;;;;;;;;5098876;27;62143;-78
2022/09/16 07:11:36;;;;;;;;;11.75;11.00;;;;;;;;5083014;28;61850;-79
2022/09/16 07:14:01;;;;;;;;;10.75;8.00;;;;;;;;5098580;27;61799;-79
2022/09/16 07:16:26;;;;;;;;;12.00;9.25;;;;;;;;5099333;27;61764;-79
2022/09/16 07:18:53;;;;;;;;;14.25;10.00;;;;;;;;5083327;28;61706;-81
2022/09/16 07:21:18;;;;;;;;;8.75;5.75;;;;;;;;5082405;28;62121;-81
2022/09/16 07:23:45;;;;;;;;;8.75;8.75;;;;;;;;5111137;27;62054;-81
2022/09/16 07:26:11;;;;;;;;;10.25;7.75;;;;;;;;5082500;27;61909;-80
2022/09/16 07:28:37;;;;;;;;;11.50;8.75;;;;;;;;5082816;27;61870;-80
2022/09/16 07:31:04;;;;;;;;;7.25;6.25;;;;;;;;5115468;27;64482;-80
2022/09/16 07:33:30;;;;;;;;;12.00;8.00;;;;;;;;5116049;27;61759;-80
2022/09/16 07:35:59;;;;;;;;;9.00;8.00;;;;;;;;5082925;27;61885;-80
2022/09/16 07:38:24;;;;;;;;;11.00;9.50;;;;;;;;5083355;27;61680;-80
2022/09/16 07:40:50;;;;;;;;;10.75;8.25;;;;;;;;5115050;27;64725;-79
2022/09/16 07:43:15;;;;;;;;;8.50;7.00;;;;;;;;5080988;28;61932;-79
2022/09/16 07:45:40;;;;;;;;;13.00;9.25;;;;;;;;5081542;28;62025;-78
2022/09/16 07:48:05;;;;;;;;;12.75;10.00;;;;;;;;5085397;27;62119;-80
2022/09/16 07:50:31;;;;;;;;;8.00;6.00;;;;;;;;5100870;27;63684;-78
2022/09/16 07:52:56;;;;;;;;;7.75;5.25;;;;;;;;5102976;27;61745;-78
2022/09/16 07:55:21;;;;;;;;;11.75;8.50;;;;;;;;5102812;27;62003;-77
2022/09/16 07:57:46;;;;;;;;;9.00;7.25;;;;;;;;5101832;27;62101;-80
2022/09/16 08:00:12;;;;;;;;;12.75;9.50;;;;;;;;5100714;27;63813;-78
2022/09/16 08:02:37;;;;;;;;;11.50;8.75;;;;;;;;5101704;27;61999;-78
2022/09/16 08:05:03;;;;;;;;;7.75;6.25;;;;;;;;5101575;27;62179;-79
2022/09/16 08:07:29;;;;;;;;;12.25;8.75;;;;;;;;5103159;27;61705;-78
2022/09/16 08:09:54;;;;;;;;;11.50;6.50;;;;;;;;5100761;27;63454;-78
2022/09/16 08:12:19;;;;;;;;;11.00;9.50;;;;;;;;5101019;27;62180;-78
2022/09/16 08:14:45;;;;;;;;;7.50;6.00;;;;;;;;5101274;27;62441;-79
2022/09/16 08:17:10;;;;;;;;;7.00;6.00;;;;;;;;5103153;27;61840;-78
2022/09/16 08:19:38;;;;;;;;;9.00;6.25;;;;;;;;5100401;27;64082;-78
2022/09/16 08:22:03;;;;;;;;;10.50;6.75;;;;;;;;5096731;27;61740;-78
2022/09/16 08:24:28;;;;;;;;;13.25;9.50;;;;;;;;5101072;27;61696;-79
2022/09/16 08:26:53;;;;;;;;;10.75;8.00;;;;;;;;5102995;27;61691;-78
2022/09/16 08:29:21;;;;;;;;;7.25;6.00;;;;;;;;5101762;27;62001;-80
2022/09/16 08:31:46;;;;;;;;;11.50;8.25;;;;;;;;5101400;27;61877;-81
2022/09/16 08:34:11;;;;;;;;;10.25;7.00;;;;;;;;5102705;27;61738;-79
2022/09/16 08:36:37;;;;;;;;;7.25;6.00;;;;;;;;5102845;27;61935;-80
2022/09/16 08:39:02;;;;;;;;;7.25;7.25;;;;;;;;5103219;27;63878;-80
2022/09/16 08:41:38;;;;;;;;;6.00;5.00;;;;;;;;5106238;27;62050;-83
2022/09/16 08:44:09;;;;;;;;;7.00;7.00;;;;;;;;5104779;27;62224;-79
2022/09/16 08:46:40;;;;;;;;;6.00;5.00;;;;;;;;5104554;27;61681;-78
2022/09/16 08:49:15;;;;;;;;;9.00;6.00;;;;;;;;5104263;27;64688;-78
2022/09/16 08:51:41;;;;;;;;;10.75;8.25;;;;;;;;5104423;27;61786;-78
2022/09/16 08:54:10;;;;;;;;;6.00;6.00;;;;;;;;5105727;27;62031;-78
2022/09/16 08:56:36;;;;;;;;;6.00;4.00;;;;;;;;5106304;27;62098;-77
2022/09/16 08:59:09;;;;;;;;;8.25;4.75;;;;;;;;5103438;27;63928;-78
2022/09/16 09:01:43;;;;;;;;;6.00;6.00;;;;;;;;5105616;27;61726;-79
2022/09/16 09:04:10;;;;;;;;;4.00;4.00;;;;;;;;5104413;27;61930;-79
2022/09/16 09:06:54;;;;;;;;;9.25;6.00;;;;;;;;5104593;27;62224;-83
2022/09/16 09:09:24;;;;;;;;;4.75;4.75;;;;;;;;5103524;27;63697;-78
2022/09/16 09:12:16;;;;;;;;;4.00;3.00;;;;;;;;5104811;27;62027;-79
2022/09/16 09:15:06;;;;;;;;;1.75;1.75;;;;;;;;5101919;27;61738;-79
2022/09/16 09:17:50;;;;;;;;;2.00;1.00;;;;;;;;5104303;27;61987;-80
2022/09/16 09:20:18;;;;;;;;;9.25;3.25;;;;;;;;5103905;27;63974;-80
2022/09/16 09:22:44;;;;;;;;;2.50;2.50;;;;;;;;5099320;27;62230;-81
2022/09/16 09:25:31;;;;;;;;;3.50;2.50;;;;;;;;5103781;27;61749;-78
2022/09/16 09:27:59;;;;;;;;;2.50;2.00;;;;;;;;5103895;27;62021;-80
2022/09/16 09:30:25;;;;;;;;;4.50;2.25;;;;;;;;5103258;27;64082;-81
2022/09/16 09:32:51;;;;;;;;;6.25;1.00;;;;;;;;5103938;27;61953;-80
2022/09/16 09:35:35;;;;;;;;;1.50;1.00;;;;;;;;5103799;27;61834;-80
2022/09/16 09:38:10;;;;;;;;;1.25;1.25;;;;;;;;5105229;27;62154;-79
2022/09/16 09:40:38;;;;;;;;;0.00;0.00;;;;;;;;5104737;27;62311;-79
2022/09/16 09:43:09;;;;;;;;;1.00;1.00;;;;;;;;5103659;27;62037;-79
2022/09/16 09:45:37;;;;;;;;;2.50;1.00;;;;;;;;5104993;27;61909;-78
2022/09/16 09:48:09;;;;;;;;;1.00;1.00;;;;;;;;5105194;27;62066;-78
2022/09/16 09:50:35;;;;;;;;;0.25;0.25;;;;;;;;5104515;27;63269;-80
2022/09/16 09:53:20;;;;;;;;;0.00;0.00;;;;;;;;5103365;27;61754;-80
2022/09/16 09:55:46;;;;;;;;;0.00;0.00;;;;;;;;5103461;27;61889;-79
2022/09/16 09:58:36;;;;;;;;;0.00;0.00;;;;;;;;5104129;27;61843;-79
2022/09/16 10:01:02;;;;;;;;;1.00;1.00;;;;;;;;5102487;27;62725;-79
2022/09/16 10:03:28;;;;;;;;;0.00;0.00;;;;;;;;5103595;27;62022;-79
2022/09/16 10:05:54;;;;;;;;;4.25;0.75;;;;;;;;5103562;27;61828;-79
2022/09/16 10:08:19;;;;;;;;;1.00;0.00;;;;;;;;5104967;27;61945;-77
2022/09/16 10:10:51;;;;;;;;;2.00;1.00;;;;;;;;5102371;27;61848;-76
2022/09/16 10:13:18;;;;;;;;;0.00;0.00;;;;;;;;5104286;27;61721;-77
2022/09/16 10:15:43;;;;;;;;;0.00;0.00;;;;;;;;5102653;27;62039;-77
2022/09/16 10:18:24;;;;;;;;;0.00;0.00;;;;;;;;5102283;27;62181;-77
2022/09/16 10:21:15;;;;;;;;;1.00;1.00;;;;;;;;5101734;27;64951;-77
2022/09/16 10:23:51;;;;;;;;;0.00;0.00;;;;;;;;5128325;27;61877;-76
2022/09/16 10:26:26;;;;;;;;;0.50;0.50;;;;;;;;5103736;27;62089;-76
2022/09/16 10:29:02;;;;;;;;;2.00;0.00;;;;;;;;5104249;27;61711;-77
2022/09/16 10:31:35;;;;;;;;;0.67;0.67;;;;;;;;5104095;27;61982;-77
2022/09/16 10:34:01;;;;;;;;;0.00;0.00;;;;;;;;5102913;27;61949;-76
2022/09/16 10:36:30;;;;;;;;;0.67;0.67;;;;;;;;5104951;27;62046;-78
2022/09/16 10:38:56;;;;;;;;;0.67;0.67;;;;;;;;5102859;27;62017;-77
2022/09/16 10:41:26;;;;;;;;;2.00;0.00;;;;;;;;5104066;27;63116;-76
2022/09/16 10:43:53;;;;;;;;;2.00;0.00;;;;;;;;5102424;27;62324;-77
2022/09/16 10:46:19;;;;;;;;;2.00;0.00;;;;;;;;5102835;27;61884;-76
2022/09/16 10:48:45;;;;;;;;;0.00;0.00;;;;;;;;5104470;27;61772;-77
2022/09/16 10:51:21;;;;;;;;;0.00;0.00;;;;;;;;5103658;27;61885;-76
2022/09/16 10:53:50;;;;;;;;;1.00;0.00;;;;;;;;5104062;27;62180;-77
2022/09/16 10:56:18;;;;;;;;;0.00;0.00;;;;;;;;5102905;27;62330;-77
2022/09/16 10:58:43;;;;;;;;;1.00;1.00;;;;;;;;5102536;27;62123;-77
2022/09/16 11:01:20;;;;;;;;;1.00;1.00;;;;;;;;5102638;27;62806;-77
2022/09/16 11:03:45;;;;;;;;;1.00;1.00;;;;;;;;5102919;27;61729;-77
2022/09/16 11:06:20;;;;;;;;;0.67;0.67;;;;;;;;5103921;27;62310;-77
2022/09/16 11:08:55;;;;;;;;;1.00;0.67;;;;;;;;5104393;27;61947;-77
2022/09/16 11:11:33;;;;;;;;;1.00;1.00;;;;;;;;5102987;27;62244;-77
2022/09/16 11:14:02;;;;;;;;;0.67;0.67;;;;;;;;5103668;27;61888;-77
2022/09/16 11:16:40;;;;;;;;;0.00;0.00;;;;;;;;5102613;27;61744;-77
2022/09/16 11:19:08;;;;;;;;;1.00;1.00;;;;;;;;5102511;27;62701;-77
2022/09/16 11:21:42;;;;;;;;;0.00;0.00;;;;;;;;5100158;27;62011;-77
2022/09/16 11:24:22;;;;;;;;;2.00;1.00;;;;;;;;5101759;27;61986;-77
2022/09/16 11:27:01;;;;;;;;;0.67;0.67;;;;;;;;5101646;27;62122;-77
2022/09/16 11:29:32;;;;;;;;;0.00;0.00;;;;;;;;5101520;27;61903;-76
2022/09/16 11:31:57;;;;;;;;;0.00;0.00;;;;;;;;5101604;27;65025;-79
2022/09/16 11:34:41;;;;;;;;;0.00;0.00;;;;;;;;5102242;27;62015;-76
2022/09/16 11:37:33;;;;;;;;;0.00;0.00;;;;;;;;5101786;27;62209;-76
2022/09/16 11:40:01;;;;;;;;;5.67;1.33;;;;;;;;5042775;28;62067;-81
2022/09/16 11:42:28;;;;;;;;;1.33;0.00;;;;;;;;5058612;28;62738;-80
2022/09/16 11:44:56;;;;;;;;;0.00;0.00;;;;;;;;5057437;28;61770;-79
2022/09/16 11:47:31;;;;;;;;;1.67;0.33;;;;;;;;5058222;28;62085;-78
2022/09/16 11:50:07;;;;;;;;;0.67;0.67;;;;;;;;5041578;28;62095;-78
2022/09/16 11:52:41;;;;;;;;;1.00;0.00;;;;;;;;5057363;28;63786;-81
2022/09/16 11:55:15;;;;;;;;;1.00;1.00;;;;;;;;5057542;28;62093;-75
2022/09/16 11:57:44;;;;;;;;;0.00;0.00;;;;;;;;5040930;28;62285;-75
2022/09/16 12:00:18;;;;;;;;;1.33;0.00;;;;;;;;5041169;28;62006;-76
2022/09/16 12:02:48;;;;;;;;;2.00;0.00;;;;;;;;5056244;28;62663;-76
2022/09/16 12:05:18;;;;;;;;;2.00;0.00;;;;;;;;5030869;28;62036;-75
2022/09/16 12:07:50;;;;;;;;;0.00;0.00;;;;;;;;5030867;28;62518;-76
2022/09/16 12:10:27;;;;;;;;;1.00;1.00;;;;;;;;5041236;28;61787;-76
2022/09/16 12:12:56;;;;;;;;;0.00;0.00;;;;;;;;5031065;28;63842;-76
2022/09/16 12:15:30;;;;;;;;;0.33;0.00;;;;;;;;5048900;28;62019;-75
2022/09/16 12:18:08;;;;;;;;;0.00;0.00;;;;;;;;5097021;27;61928;-76
2022/09/16 12:20:36;;;;;;;;;0.00;0.00;;;;;;;;5100171;27;61782;-76
2022/09/16 12:23:08;;;;;;;;;1.00;1.00;;;;;;;;5098754;27;63856;-76
2022/09/16 12:25:40;;;;;;;;;0.00;0.00;;;;;;;;5099359;27;61989;-76
2022/09/16 12:28:15;;;;;;;;;0.00;0.00;;;;;;;;5096545;27;62188;-76
2022/09/16 12:30:45;;;;;;;;;2.00;2.00;;;;;;;;5100626;27;61998;-76
2022/09/16 12:33:23;;;;;;;;;2.00;1.00;;;;;;;;5098987;27;64536;-76
2022/09/16 12:35:55;;;;;;;;;0.67;0.67;;;;;;;;5095115;27;61869;-75
2022/09/16 12:38:21;;;;;;;;;0.67;0.67;;;;;;;;5097933;27;61959;-76
2022/09/16 12:41:02;;;;;;;;;1.33;0.67;;;;;;;;5097565;27;62213;-79
2022/09/16 12:43:27;;;;;;;;;1.00;1.00;;;;;;;;5098707;27;63353;-76
2022/09/16 12:46:00;;;;;;;;;1.00;0.67;;;;;;;;5101018;27;62191;-78
2022/09/16 12:48:34;;;;;;;;;2.67;1.00;;;;;;;;5100891;27;62179;-78
2022/09/16 12:51:02;;;;;;;;;0.00;0.00;;;;;;;;5097515;27;61811;-78
2022/09/16 12:53:34;;;;;;;;;0.00;0.00;;;;;;;;5099939;27;62029;-77
2022/09/16 12:56:13;;;;;;;;;1.00;0.00;;;;;;;;5097809;27;62083;-76
2022/09/16 12:59:04;;;;;;;;;0.00;0.00;;;;;;;;5099950;27;61847;-76
2022/09/16 13:01:59;;;;;;;;;1.67;1.67;;;;;;;;5100188;27;61856;-77
2022/09/16 13:04:32;;;;;;;;;0.33;0.00;;;;;;;;5088707;27;62297;-78
2022/09/16 13:07:00;;;;;;;;;0.67;0.67;;;;;;;;5098661;27;61785;-77
2022/09/16 13:09:25;;;;;;;;;2.33;1.33;;;;;;;;5098880;27;62385;-77
2022/09/16 13:12:00;;;;;;;;;1.67;1.33;;;;;;;;5099283;27;61837;-78
2022/09/16 13:14:37;;;;;;;;;0.67;0.67;;;;;;;;5096804;27;62718;-77
2022/09/16 13:17:03;;;;;;;;;0.00;0.00;;;;;;;;5097542;27;62066;-77
2022/09/16 13:19:29;;;;;;;;;0.33;0.33;;;;;;;;5098439;27;62176;-78
2022/09/16 13:21:59;;;;;;;;;1.00;1.00;;;;;;;;5097635;27;62524;-77
2022/09/16 13:24:36;;;;;;;;;1.33;1.00;;;;;;;;5099387;27;63554;-75
2022/09/16 13:27:17;;;;;;;;;0.33;0.33;;;;;;;;5101781;27;61825;-77
2022/09/16 13:29:43;;;;;;;;;0.00;0.00;;;;;;;;5100350;27;61956;-77
2022/09/16 13:32:37;;;;;;;;;1.00;1.00;;;;;;;;5105211;27;61715;-76
2022/09/16 13:35:21;;;;;;;;;2.00;1.00;;;;;;;;5104855;27;62722;-77
2022/09/16 13:37:47;;;;;;;;;2.00;0.00;;;;;;;;5105130;27;61817;-77
2022/09/16 13:40:17;;;;;;;;;0.00;0.00;;;;;;;;5103741;27;61863;-76
2022/09/16 13:42:42;;;;;;;;;1.00;1.00;;;;;;;;5104792;27;62661;-77
2022/09/16 13:45:26;;;;;;;;;1.00;0.00;;;;;;;;5104916;27;61940;-77
2022/09/16 13:47:51;;;;;;;;;2.33;2.00;;;;;;;;5103421;27;61883;-77
2022/09/16 13:50:20;;;;;;;;;0.00;0.00;;;;;;;;5103738;27;62125;-76
2022/09/16 13:52:46;;;;;;;;;0.00;0.00;;;;;;;;5103581;27;61736;-76
2022/09/16 13:55:22;;;;;;;;;0.00;0.00;;;;;;;;5104447;27;62951;-78
2022/09/16 13:57:51;;;;;;;;;1.00;1.00;;;;;;;;5099798;27;61979;-77
2022/09/16 14:00:16;;;;;;;;;2.67;0.67;;;;;;;;5103260;27;63213;-76
2022/09/16 14:02:46;;;;;;;;;0.33;0.33;;;;;;;;5103609;27;62093;-77
2022/09/16 14:05:11;;;;;;;;;2.00;0.33;;;;;;;;5102471;27;62820;-78
2022/09/16 14:07:53;;;;;;;;;1.00;1.00;;;;;;;;5101575;27;62292;-77
2022/09/16 14:10:25;;;;;;;;;1.67;0.67;;;;;;;;5102272;27;62111;-77
2022/09/16 14:13:00;;;;;;;;;0.67;0.67;;;;;;;;5099244;27;61990;-77
2022/09/16 14:15:26;;;;;;;;;0.00;0.00;;;;;;;;5101101;27;63696;-77
2022/09/16 14:17:57;;;;;;;;;0.33;0.33;;;;;;;;5102791;27;62039;-78
2022/09/16 14:20:23;;;;;;;;;0.00;0.00;;;;;;;;5102836;27;61694;-77
2022/09/16 14:23:10;;;;;;;;;1.00;0.67;;;;;;;;5101739;27;62011;-76
2022/09/16 14:25:35;;;;;;;;;2.00;1.00;;;;;;;;5100530;27;62234;-76
2022/09/16 14:28:08;;;;;;;;;1.67;1.00;;;;;;;;5101196;27;61895;-76
2022/09/16 14:30:33;;;;;;;;;4.00;1.33;;;;;;;;5097364;27;62109;-76
2022/09/16 14:33:00;;;;;;;;;2.67;2.67;;;;;;;;5101914;27;62450;-76
2022/09/16 14:35:26;;;;;;;;;1.00;1.00;;;;;;;;5099868;27;63302;-76
2022/09/16 14:38:02;;;;;;;;;0.00;0.00;;;;;;;;5102639;27;61924;-76
2022/09/16 14:40:28;;;;;;;;;0.67;0.00;;;;;;;;5104596;27;62126;-76
2022/09/16 14:43:03;;;;;;;;;0.33;0.33;;;;;;;;5100765;27;62463;-76
2022/09/16 14:45:29;;;;;;;;;0.33;0.33;;;;;;;;5102106;27;61841;-76
2022/09/16 14:47:56;;;;;;;;;1.00;0.00;;;;;;;;5102268;27;61972;-77
2022/09/16 14:50:27;;;;;;;;;0.67;0.00;;;;;;;;5102278;27;61776;-77
2022/09/16 14:52:55;;;;;;;;;1.33;0.33;;;;;;;;5101425;27;62047;-77
2022/09/16 14:55:25;;;;;;;;;0.00;0.00;;;;;;;;5100274;27;64059;-77
2022/09/16 14:57:53;;;;;;;;;0.00;0.00;;;;;;;;5098652;27;62780;-77